Flugplatz Finsterwalde/Heinrichsruh

Für EDAS sind keine METAR/TAF Berichte vorhanden.
Es werden die Flugwettermeldungen vom Flugplatz Holzdorf Airport in 37 km Entfernung angezeigt.

Bericht für ETSH

vom 14.12. um 21:20 UTC

Wind 10 kt aus 230°

Sichtweite 10 km oder mehr

aufgelockert bewölkt in 2000 ft

aufgelockert bewölkt in 3000 ft

aufgebrochene Bewölkung in 6000 ft

Temperatur 5.0°C

Taupunkt 4.0°C

Luftfeuchtigkeit 93%

Luftdruck 997 hPa

ETSH 142120Z 23010KT 9999 SCT020 SCT030 BKN060 05/04 Q0997 RERA BLU
Keine Prognose (TAF) verfügbar.
Impressum